Time;durP1;ratioP1;P1;durP2;ratioP2;P2;SDS_P1;SDS_P2;PMS_P1;PMS_P2;Temp;Humidity;BMP_temperature;BMP_pressure;BME280_temperature;BME280_humidity;BME280_pressure;Samples;Min_cycle;Max_cycle;Signal;HPM_P1;HPM_P2
2021/12/29 00:00:54;;;;;;;0.10;0.10;;;;;;;8.86;77.39;99363.66;7365666;19;20006;-57
2021/12/29 00:03:19;;;;;;;0.08;0.08;;;;;;;8.84;77.74;99365.50;7366763;19;20624;-57
2021/12/29 00:05:45;;;;;;;0.10;0.10;;;;;;;8.82;77.36;99356.91;7361395;19;20035;-57
2021/12/29 00:08:10;;;;;;;0.10;0.10;;;;;;;8.83;77.41;99354.22;7365239;19;20034;-57
2021/12/29 00:10:36;;;;;;;0.00;0.00;;;;;;;8.83;77.42;99349.03;7363095;19;20010;-57
2021/12/29 00:13:04;;;;;;;0.00;0.00;;;;;;;8.81;77.38;99345.63;7367761;19;20063;-57
2021/12/29 00:15:30;;;;;;;;;;;;;;;8.87;78.34;99349.78;7363739;19;20011;-57
2021/12/29 00:17:57;;;;;;;0.10;0.10;;;;;;;8.71;77.37;99320.84;7361802;19;19923;-57
2021/12/29 00:20:28;;;;;;;0.00;0.00;;;;;;;8.83;77.40;99342.97;7359526;19;20010;-56
2021/12/29 00:22:55;;;;;;;0.10;0.10;;;;;;;8.81;77.20;99339.56;7364551;19;20007;-57
2021/12/29 00:25:20;;;;;;;0.10;0.10;;;;;;;8.75;77.47;99327.63;7360859;19;20374;-56
2021/12/29 00:27:46;;;;;;;0.00;0.00;;;;;;;8.76;77.11;99325.88;7364851;19;20029;-57
2021/12/29 00:30:12;;;;;;;0.10;0.10;;;;;;;8.75;77.63;99318.97;7342538;19;20040;-57
2021/12/29 00:32:38;;;;;;;0.10;0.10;;;;;;;8.69;77.69;99311.41;7359513;19;20514;-57
2021/12/29 00:35:05;;;;;;;0.00;0.00;;;;;;;8.80;77.70;99320.50;7361831;19;20014;-57
2021/12/29 00:37:31;;;;;;;0.10;0.10;;;;;;;8.82;77.88;99315.25;7358841;19;20074;-57
2021/12/29 00:39:56;;;;;;;0.00;0.00;;;;;;;8.83;77.85;99322.16;7359278;19;20010;-56
2021/12/29 00:42:22;;;;;;;0.10;0.10;;;;;;;8.83;77.55;99315.19;7355216;19;20014;-57
2021/12/29 00:44:49;;;;;;;0.10;0.10;;;;;;;8.87;77.93;99323.75;7365942;19;20725;-57
2021/12/29 00:47:15;;;;;;;0.10;0.10;;;;;;;8.90;78.14;99325.38;7364354;19;20580;-57
2021/12/29 00:49:41;;;;;;;0.00;0.00;;;;;;;8.79;78.12;99299.75;7365576;19;20006;-56
2021/12/29 00:52:09;;;;;;;0.00;0.00;;;;;;;8.93;78.00;99307.88;7362082;19;20018;-56
2021/12/29 00:54:39;;;;;;;0.10;0.10;;;;;;;8.96;78.39;99302.53;7364068;19;20026;-57
2021/12/29 00:57:04;;;;;;;0.05;0.05;;;;;;;8.97;77.85;99303.38;7365265;19;20144;-57
2021/12/29 00:59:30;;;;;;;0.10;0.10;;;;;;;8.98;77.98;99303.34;7364353;19;20486;-57
2021/12/29 01:01:55;;;;;;;0.08;0.08;;;;;;;9.00;77.78;99309.34;7359943;19;20033;-57
2021/12/29 01:04:21;;;;;;;0.00;0.00;;;;;;;9.01;78.25;99305.81;7360247;19;20686;-57
2021/12/29 01:06:47;;;;;;;0.10;0.10;;;;;;;9.04;78.21;99303.09;7365964;19;20031;-57
2021/12/29 01:09:14;;;;;;;0.00;0.00;;;;;;;8.97;78.03;99278.22;7360534;19;20012;-57
2021/12/29 01:11:40;;;;;;;0.00;0.00;;;;;;;9.07;78.31;99282.16;7363291;19;20710;-57
2021/12/29 01:14:07;;;;;;;0.00;0.00;;;;;;;9.09;78.69;99282.94;7363026;19;20017;-56
2021/12/29 01:19:17;;;;;;;0.10;0.10;;;;;;;9.13;78.67;99262.00;7359214;19;20029;-56
2021/12/29 01:21:46;;;;;;;0.10;0.10;;;;;;;9.15;78.73;99262.78;7357156;19;20475;-56
2021/12/29 01:24:12;;;;;;;0.00;0.00;;;;;;;9.13;78.47;99252.44;7359640;19;20425;-57
2021/12/29 01:26:41;;;;;;;0.00;0.00;;;;;;;9.14;78.54;99255.88;7358079;19;20014;-57
2021/12/29 01:29:07;;;;;;;0.00;0.00;;;;;;;9.14;78.91;99255.88;7356358;19;20014;-57
2021/12/29 01:31:33;;;;;;;0.00;0.00;;;;;;;9.13;79.03;99251.59;7361563;19;20043;-57
2021/12/29 01:33:59;;;;;;;0.05;0.05;;;;;;;9.13;78.70;99235.97;7357787;19;20022;-57
2021/12/29 01:36:26;;;;;;;0.00;0.00;;;;;;;9.14;79.29;99237.66;7361668;19;20022;-57
2021/12/29 01:38:51;;;;;;;0.00;0.00;;;;;;;9.10;79.27;99226.50;7358956;19;20006;-57
2021/12/29 01:41:17;;;;;;;0.00;0.00;;;;;;;9.15;79.34;99228.91;7364649;19;20021;-57
2021/12/29 01:43:42;;;;;;;0.00;0.00;;;;;;;9.17;79.67;99225.31;7360725;19;20022;-58
2021/12/29 01:46:08;;;;;;;0.00;0.00;;;;;;;9.19;79.50;99217.47;7361205;19;20035;-57
2021/12/29 01:48:33;;;;;;;0.00;0.00;;;;;;;9.20;79.51;99213.94;7360913;19;20018;-56
2021/12/29 01:50:59;;;;;;;0.10;0.10;;;;;;;9.22;79.50;99217.31;7360381;19;20010;-57
2021/12/29 01:53:29;;;;;;;0.10;0.10;;;;;;;9.23;79.50;99211.22;7354625;19;20893;-57
2021/12/29 01:55:55;;;;;;;0.00;0.00;;;;;;;9.24;79.41;99202.50;7360704;19;20011;-57
2021/12/29 01:58:22;;;;;;;0.00;0.00;;;;;;;9.23;79.65;99200.81;7361711;19;20014;-57
2021/12/29 02:00:49;;;;;;;0.10;0.10;;;;;;;9.27;79.79;99202.34;7360626;19;20014;-56
2021/12/29 02:03:14;;;;;;;0.00;0.00;;;;;;;9.30;79.60;99202.25;7358695;19;20020;-57
2021/12/29 02:05:41;;;;;;;0.00;0.00;;;;;;;9.32;80.08;99190.00;7359826;19;20018;-57
2021/12/29 02:08:08;;;;;;;0.10;0.10;;;;;;;9.34;79.82;99198.59;7357476;19;20014;-57
2021/12/29 02:10:42;;;;;;;0.10;0.10;;;;;;;9.36;80.30;99201.97;7356360;19;20032;-58
2021/12/29 02:13:08;;;;;;;0.10;0.10;;;;;;;9.42;80.45;99200.88;7364376;19;20019;-57
2021/12/29 02:15:34;;;;;;;0.00;0.00;;;;;;;9.44;80.58;99178.22;7369577;19;20030;-57
2021/12/29 02:17:59;;;;;;;0.10;0.10;;;;;;;9.48;80.32;99185.84;7368356;19;20577;-57
2021/12/29 02:20:26;;;;;;;0.00;0.00;;;;;;;9.51;80.41;99179.66;7364255;19;20025;-57
2021/12/29 02:23:11;;;;;;;0.10;0.10;;;;;;;9.55;80.75;99182.06;7370150;19;20469;-57
2021/12/29 02:25:47;;;;;;;0.10;0.10;;;;;;;9.60;80.99;99179.25;7365354;19;20604;-56
2021/12/29 02:28:14;;;;;;;0.10;0.10;;;;;;;9.59;80.34;99165.38;7367701;19;20030;-57
2021/12/29 02:30:40;;;;;;;0.00;0.00;;;;;;;9.67;80.69;99164.19;7365616;19;20010;-57
2021/12/29 02:33:06;;;;;;;0.00;0.00;;;;;;;9.70;80.17;99158.88;7360978;19;20026;-57
2021/12/29 02:35:32;;;;;;;0.00;0.00;;;;;;;9.71;80.58;99156.19;7365030;19;20029;-57
2021/12/29 02:38:00;;;;;;;0.00;0.00;;;;;;;9.75;80.17;99152.53;7364566;19;20018;-57
2021/12/29 02:40:26;;;;;;;0.10;0.10;;;;;;;9.68;80.36;99124.19;7364858;19;20017;-57
2021/12/29 02:42:52;;;;;;;0.00;0.00;;;;;;;9.78;79.95;99131.56;7367023;19;20031;-57
2021/12/29 02:45:22;;;;;;;0.10;0.10;;;;;;;9.83;80.27;99126.09;7362570;19;20390;-56
2021/12/29 02:47:48;;;;;;;0.00;0.00;;;;;;;9.85;80.33;99122.53;7363029;19;20077;-57
2021/12/29 02:50:15;;;;;;;0.10;0.10;;;;;;;9.90;79.91;99113.66;7368914;19;20021;-57
2021/12/29 02:52:41;;;;;;;0.00;0.00;;;;;;;9.92;79.89;99107.44;7368366;19;20020;-57
2021/12/29 02:55:07;;;;;;;0.08;0.08;;;;;;;9.95;79.98;99112.53;7364378;19;20009;-56
2021/12/29 02:57:33;;;;;;;0.00;0.00;;;;;;;9.97;79.95;99110.69;7366386;19;20007;-57
2021/12/29 02:59:58;;;;;;;0.10;0.10;;;;;;;9.99;80.09;99103.66;7357674;19;20073;-57
2021/12/29 03:02:24;;;;;;;0.08;0.08;;;;;;;10.00;79.78;99100.13;7366059;19;20613;-57
2021/12/29 03:04:49;;;;;;;0.00;0.00;;;;;;;10.04;80.16;99096.47;7368165;19;20038;-57
2021/12/29 03:07:15;;;;;;;0.03;0.03;;;;;;;10.07;80.40;99085.88;7362927;19;20010;-57
2021/12/29 03:09:40;;;;;;;0.05;0.05;;;;;;;9.97;79.94;99057.69;7360312;19;20686;-56
2021/12/29 03:12:06;;;;;;;0.00;0.00;;;;;;;10.02;81.00;99067.00;7363814;19;20022;-57
2021/12/29 03:14:32;;;;;;;0.10;0.10;;;;;;;10.11;79.81;99065.72;7362901;19;20002;-57
2021/12/29 03:16:57;;;;;;;0.10;0.10;;;;;;;10.12;80.55;99063.03;7360161;19;20033;-56
2021/12/29 03:19:23;;;;;;;0.05;0.05;;;;;;;10.14;80.28;99061.22;7366330;19;20018;-56
2021/12/29 03:21:50;;;;;;;0.10;0.10;;;;;;;10.14;80.57;99050.78;7358862;19;20015;-57
2021/12/29 03:24:18;;;;;;;0.10;0.10;;;;;;;10.17;80.41;99043.72;7362239;19;20039;-57
2021/12/29 03:26:44;;;;;;;0.00;0.00;;;;;;;10.19;80.63;99044.47;7363095;19;20015;-57
2021/12/29 03:29:10;;;;;;;0.00;0.00;;;;;;;10.18;80.59;99041.03;7360402;19;20034;-57
2021/12/29 03:31:38;;;;;;;0.00;0.00;;;;;;;10.19;80.51;99028.84;7364632;19;20038;-57
2021/12/29 03:34:05;;;;;;;0.00;0.00;;;;;;;10.18;81.02;99020.16;7365250;19;20006;-57
2021/12/29 03:36:30;;;;;;;0.00;0.00;;;;;;;10.20;80.54;99023.56;7360898;19;20019;-57
2021/12/29 03:38:56;;;;;;;0.10;0.10;;;;;;;10.15;80.37;99004.69;7367853;19;20024;-57
2021/12/29 03:41:24;;;;;;;0.08;0.08;;;;;;;10.23;80.78;99009.50;7358314;19;20006;-57
2021/12/29 03:43:50;;;;;;;0.00;0.00;;;;;;;10.10;80.71;98989.25;7365911;19;20031;-57
2021/12/29 03:46:16;;;;;;;0.10;0.10;;;;;;;10.21;80.74;98993.09;7368461;19;20014;-58
2021/12/29 03:48:44;;;;;;;0.03;0.03;;;;;;;10.19;81.37;98981.88;7364692;19;20006;-57
2021/12/29 03:51:10;;;;;;;0.00;0.00;;;;;;;10.17;81.03;98987.19;7365190;19;20027;-58
2021/12/29 03:53:36;;;;;;;0.00;0.00;;;;;;;10.11;81.13;98972.69;7365796;19;20374;-57
2021/12/29 03:56:02;;;;;;;0.10;0.10;;;;;;;10.05;81.22;98962.53;7366616;19;20030;-57
2021/12/29 03:58:29;;;;;;;0.10;0.10;;;;;;;10.06;81.69;98968.59;7364851;19;20135;-58
2021/12/29 04:01:00;;;;;;;0.00;0.00;;;;;;;10.04;81.60;98955.66;7366997;19;20006;-58
2021/12/29 04:03:26;;;;;;;0.00;0.00;;;;;;;9.99;81.39;98962.84;7361978;19;20008;-57
2021/12/29 04:05:51;;;;;;;0.00;0.00;;;;;;;9.84;81.58;98927.09;7359228;19;20738;-58
2021/12/29 04:08:17;;;;;;;0.10;0.10;;;;;;;9.94;81.80;98943.97;7362852;19;20890;-58
2021/12/29 04:10:43;;;;;;;0.00;0.00;;;;;;;9.92;82.09;98934.50;7343836;19;20021;-58
2021/12/29 04:13:08;;;;;;;0.00;0.00;;;;;;;9.90;82.04;98932.00;7362217;19;20010;-59
2021/12/29 04:15:36;;;;;;;0.00;0.00;;;;;;;9.78;82.27;98906.50;7366614;19;20039;-59
2021/12/29 04:18:03;;;;;;;;;;;;;;;9.92;81.81;98914.50;7367066;19;20010;-59
2021/12/29 04:23:18;;;;;;;0.00;0.00;;;;;;;9.86;81.91;98896.56;7264510;19;2005554;-59
2021/12/29 04:25:48;;;;;;;0.00;0.00;;;;;;;9.86;81.98;98894.78;7365537;19;20368;-58
2021/12/29 04:28:16;;;;;;;0.10;0.10;;;;;;;9.85;82.18;98894.88;7367485;19;20014;-59
2021/12/29 04:30:42;;;;;;;;;;;;;;;9.88;82.49;98881.66;7361533;19;20018;-59
2021/12/29 04:33:08;;;;;;;0.10;0.10;;;;;;;9.81;82.28;98886.34;7366555;19;19933;-59
2021/12/29 04:35:34;;;;;;;0.00;0.00;;;;;;;9.82;82.47;98861.13;7363155;19;20039;-59
2021/12/29 04:37:59;;;;;;;0.10;0.10;;;;;;;9.79;82.26;98841.28;7365700;19;20021;-58
2021/12/29 04:40:25;;;;;;;0.00;0.00;;;;;;;9.81;82.39;98817.72;7366274;19;20037;-58
2021/12/29 04:42:51;;;;;;;0.05;0.05;;;;;;;9.76;82.96;98807.53;7355491;19;20022;-58
2021/12/29 04:45:17;;;;;;;0.10;0.10;;;;;;;9.82;83.02;98808.97;7365514;19;20014;-58
2021/12/29 04:47:45;;;;;;;0.10;0.10;;;;;;;9.78;82.77;98802.22;7364251;19;20038;-59
2021/12/29 04:50:29;;;;;;;0.00;0.00;;;;;;;9.83;82.91;98800.22;7364813;19;20340;-58
2021/12/29 04:53:00;;;;;;;0.00;0.00;;;;;;;9.85;82.76;98794.03;7361961;19;20347;-59
2021/12/29 04:55:28;;;;;;;0.10;0.10;;;;;;;9.85;83.30;98783.63;7363309;19;20031;-59
2021/12/29 04:57:55;;;;;;;0.10;0.10;;;;;;;9.86;83.31;98774.03;7361990;19;20846;-58
2021/12/29 05:00:26;;;;;;;0.10;0.10;;;;;;;9.90;82.93;98775.56;7360354;19;20006;-58
2021/12/29 05:02:53;;;;;;;0.10;0.10;;;;;;;9.90;83.25;98770.34;7365384;19;20078;-59
2021/12/29 05:05:38;;;;;;;0.00;0.00;;;;;;;9.92;83.25;98763.28;7362806;19;20022;-59
2021/12/29 05:10:50;;;;;;;0.00;0.00;;;;;;;9.95;83.16;98754.47;7360077;19;20653;-58
2021/12/29 05:13:17;;;;;;;0.00;0.00;;;;;;;10.00;83.42;98749.88;7361431;19;20360;-59
2021/12/29 05:15:43;;;;;;;0.00;0.00;;;;;;;10.01;83.50;98747.16;7362989;19;20341;-59
2021/12/29 05:18:09;;;;;;;0.00;0.00;;;;;;;10.03;83.03;98729.66;7360637;19;20023;-58
2021/12/29 05:20:35;;;;;;;0.00;0.00;;;;;;;10.05;83.27;98727.84;7361240;19;20049;-59
2021/12/29 05:23:01;;;;;;;0.00;0.00;;;;;;;9.97;83.04;98692.66;7361691;19;20018;-61
2021/12/29 05:25:27;;;;;;;0.00;0.00;;;;;;;10.07;83.47;98668.63;7328259;19;20027;-59
2021/12/29 05:27:54;;;;;;;0.00;0.00;;;;;;;10.08;83.22;98659.84;7360856;19;20030;-58
2021/12/29 05:30:20;;;;;;;0.00;0.00;;;;;;;10.08;83.13;98654.66;7361183;19;20713;-59
2021/12/29 05:32:46;;;;;;;0.00;0.00;;;;;;;10.11;83.07;98651.03;7356532;19;20023;-59
2021/12/29 05:35:12;;;;;;;0.00;0.00;;;;;;;10.05;83.63;98644.41;7362422;19;20034;-59
2021/12/29 05:37:38;;;;;;;0.00;0.00;;;;;;;10.15;83.48;98655.19;7363301;19;20680;-58
2021/12/29 05:40:05;;;;;;;0.00;0.00;;;;;;;10.19;83.50;98650.63;7360461;19;20010;-59
2021/12/29 05:42:33;;;;;;;0.00;0.00;;;;;;;10.18;83.67;98631.53;7359603;19;20014;-59
2021/12/29 05:45:09;;;;;;;0.00;0.00;;;;;;;10.20;83.18;98616.66;7361923;19;20450;-59
2021/12/29 05:47:36;;;;;;;0.10;0.10;;;;;;;10.22;83.48;98619.16;7364708;19;20015;-58
2021/12/29 05:50:05;;;;;;;0.10;0.10;;;;;;;10.23;83.73;98605.19;7344893;19;20085;-59
2021/12/29 05:52:30;;;;;;;0.10;0.10;;;;;;;10.26;83.54;98594.63;7348437;19;20015;-58
2021/12/29 05:54:56;;;;;;;0.10;0.10;;;;;;;10.28;83.45;98603.19;7362796;19;20013;-59
2021/12/29 05:57:21;;;;;;;0.00;0.00;;;;;;;10.32;83.73;98589.91;7347118;19;20129;-59
2021/12/29 05:59:47;;;;;;;0.00;0.00;;;;;;;10.31;83.77;98571.75;7364152;19;20014;-59
2021/12/29 06:02:12;;;;;;;0.10;0.10;;;;;;;10.37;83.90;98572.22;7365939;19;20017;-59
2021/12/29 06:04:38;;;;;;;0.10;0.10;;;;;;;10.41;83.68;98570.31;7369139;19;20006;-59
2021/12/29 06:07:03;;;;;;;0.10;0.10;;;;;;;10.44;83.81;98572.75;7367219;19;20010;-58
2021/12/29 06:09:30;;;;;;;0.10;0.10;;;;;;;10.46;83.82;98565.66;7369195;19;20035;-58
2021/12/29 06:11:55;;;;;;;0.10;0.10;;;;;;;10.49;83.86;98560.28;7363373;19;20010;-58
2021/12/29 06:14:21;;;;;;;0.00;0.00;;;;;;;10.51;83.77;98553.19;7367639;19;20104;-59
2021/12/29 06:16:46;;;;;;;0.00;0.00;;;;;;;10.54;83.46;98553.03;7370658;19;20011;-58
2021/12/29 06:19:12;;;;;;;0.00;0.00;;;;;;;10.57;83.62;98524.13;7367185;19;20010;-59
2021/12/29 06:21:37;;;;;;;0.10;0.10;;;;;;;10.60;83.59;98510.09;7367230;19;20006;-58
2021/12/29 06:24:03;;;;;;;0.00;0.00;;;;;;;10.60;83.35;98504.88;7367578;19;20089;-58
2021/12/29 06:26:29;;;;;;;0.00;0.00;;;;;;;10.63;83.62;98492.47;7368168;19;20014;-59
2021/12/29 06:28:54;;;;;;;0.10;0.10;;;;;;;10.62;83.40;98490.78;7368783;19;20019;-59
2021/12/29 06:31:20;;;;;;;0.00;0.00;;;;;;;10.57;83.65;98474.56;7367540;19;20038;-58
2021/12/29 06:33:46;;;;;;;0.10;0.10;;;;;;;10.68;83.43;98491.34;7365838;19;20782;-59
2021/12/29 06:36:12;;;;;;;0.03;0.03;;;;;;;10.68;83.82;98483.53;7368114;19;20026;-58
2021/12/29 06:38:37;;;;;;;0.00;0.00;;;;;;;10.70;83.95;98476.47;7369553;19;20006;-58
2021/12/29 06:41:03;;;;;;;0.00;0.00;;;;;;;10.74;83.66;98473.56;7367368;19;20751;-59
2021/12/29 06:43:28;;;;;;;0.00;0.00;;;;;;;10.77;83.51;98454.28;7368560;19;20105;-59
2021/12/29 06:45:54;;;;;;;0.08;0.08;;;;;;;10.64;83.93;98421.09;7364616;19;20754;-59
2021/12/29 06:48:19;;;;;;;0.03;0.03;;;;;;;10.82;83.78;98436.56;7368048;19;20006;-59
2021/12/29 06:50:45;;;;;;;0.03;0.03;;;;;;;10.85;83.50;98431.19;7366613;19;20068;-59
2021/12/29 06:53:11;;;;;;;0.00;0.00;;;;;;;10.86;83.72;98432.84;7364335;19;20006;-59
2021/12/29 06:55:37;;;;;;;0.10;0.10;;;;;;;10.82;83.72;98418.28;7368015;19;20111;-59
2021/12/29 06:58:02;;;;;;;0.00;0.00;;;;;;;10.91;83.70;98420.34;7365546;19;20099;-58
2021/12/29 07:00:28;;;;;;;0.00;0.00;;;;;;;10.94;83.75;98404.47;7367325;19;20504;-58
2021/12/29 07:02:54;;;;;;;0.00;0.00;;;;;;;10.96;83.84;98389.56;7365851;19;20026;-58
2021/12/29 07:05:19;;;;;;;0.00;0.00;;;;;;;10.99;83.80;98370.25;7365855;19;20014;-58
2021/12/29 07:07:49;;;;;;;0.00;0.00;;;;;;;10.89;83.84;98354.31;7366119;19;20082;-59
2021/12/29 07:10:14;;;;;;;0.10;0.10;;;;;;;11.04;83.89;98373.41;7367407;19;20010;-58
2021/12/29 07:12:40;;;;;;;0.00;0.00;;;;;;;11.06;83.88;98371.56;7366796;19;20035;-59
2021/12/29 07:15:06;;;;;;;0.10;0.10;;;;;;;11.08;83.49;98354.84;7363028;19;20018;-60
2021/12/29 07:17:32;;;;;;;0.00;0.00;;;;;;;11.10;83.84;98354.75;7364307;19;20085;-60
2021/12/29 07:19:57;;;;;;;0.00;0.00;;;;;;;11.13;83.58;98352.81;7364690;19;20011;-60
2021/12/29 07:22:23;;;;;;;0.05;0.05;;;;;;;11.16;83.73;98344.78;7367099;19;20006;-59
2021/12/29 07:24:48;;;;;;;0.08;0.08;;;;;;;11.18;83.71;98344.69;7362854;19;20031;-60
2021/12/29 07:27:14;;;;;;;0.10;0.10;;;;;;;11.20;83.57;98337.56;7365361;19;20015;-59
2021/12/29 07:29:39;;;;;;;0.05;0.05;;;;;;;11.23;83.61;98341.78;7362910;19;20074;-58
2021/12/29 07:32:05;;;;;;;0.10;0.10;;;;;;;11.26;83.63;98338.97;7364559;19;20018;-60
2021/12/29 07:34:31;;;;;;;0.00;0.00;;;;;;;11.28;83.79;98326.66;7364397;19;20019;-58
2021/12/29 07:36:57;;;;;;;0.00;0.00;;;;;;;11.31;83.85;98326.47;7362901;19;20030;-58
2021/12/29 07:39:22;;;;;;;0.00;0.00;;;;;;;11.33;83.66;98314.97;7365082;19;20014;-59
2021/12/29 07:41:48;;;;;;;0.00;0.00;;;;;;;11.39;84.57;98306.72;7359321;19;20581;-59
2021/12/29 07:44:16;;;;;;;0.05;0.05;;;;;;;11.49;84.80;98309.59;7362549;19;20011;-59
2021/12/29 07:46:44;;;;;;;0.10;0.10;;;;;;;11.58;84.81;98295.94;7364700;19;20014;-59
2021/12/29 07:49:09;;;;;;;0.00;0.00;;;;;;;11.70;85.07;98289.88;7364678;19;20085;-59
2021/12/29 07:51:35;;;;;;;0.05;0.05;;;;;;;11.84;85.38;98291.63;7361074;19;20082;-60
2021/12/29 07:54:00;;;;;;;0.10;0.10;;;;;;;11.96;85.35;98279.50;7361917;19;20035;-58
2021/12/29 07:56:26;;;;;;;0.10;0.10;;;;;;;12.09;85.54;98290.84;7360984;19;20018;-58
2021/12/29 07:58:52;;;;;;;0.10;0.10;;;;;;;12.21;85.52;98273.47;7363913;19;20006;-59
2021/12/29 08:01:18;;;;;;;0.10;0.10;;;;;;;12.31;85.38;98292.00;7358931;19;20086;-59
2021/12/29 08:03:43;;;;;;;0.00;0.00;;;;;;;12.52;85.81;98314.09;7349758;19;20002;-59
2021/12/29 08:06:09;;;;;;;0.05;0.05;;;;;;;12.67;85.86;98315.66;7355477;19;20014;-58
2021/12/29 08:08:34;;;;;;;0.00;0.00;;;;;;;12.78;85.45;98299.19;7359531;19;20573;-59
2021/12/29 08:11:00;;;;;;;0.00;0.00;;;;;;;12.86;85.61;98316.97;7359826;19;21093;-59
2021/12/29 08:13:25;;;;;;;0.08;0.08;;;;;;;13.11;85.70;98301.19;7361863;19;20014;-59
2021/12/29 08:15:51;;;;;;;0.10;0.10;;;;;;;13.26;85.76;98277.50;7364178;19;20019;-59
2021/12/29 08:18:17;;;;;;;0.00;0.00;;;;;;;13.41;85.51;98263.28;7362067;19;20006;-59
2021/12/29 08:20:43;;;;;;;0.10;0.10;;;;;;;13.57;85.18;98281.34;7362082;19;20388;-58
2021/12/29 08:23:09;;;;;;;0.00;0.00;;;;;;;13.71;84.95;98310.84;7363345;19;20026;-58
2021/12/29 08:25:35;;;;;;;0.00;0.00;;;;;;;13.84;84.33;98262.69;7357966;19;20023;-59
2021/12/29 08:28:01;;;;;;;0.10;0.10;;;;;;;13.91;84.44;98269.19;7362631;19;20033;-59
2021/12/29 08:30:27;;;;;;;0.10;0.10;;;;;;;13.98;83.69;98255.47;7359470;19;20006;-59
2021/12/29 08:32:52;;;;;;;0.10;0.10;;;;;;;14.04;83.70;98243.69;7360424;19;20010;-59
2021/12/29 08:35:18;;;;;;;0.00;0.00;;;;;;;14.10;83.21;98306.22;7363946;19;20014;-58
2021/12/29 08:37:44;;;;;;;0.00;0.00;;;;;;;14.11;82.77;98268.50;7356904;19;20070;-58
2021/12/29 08:40:11;;;;;;;0.00;0.00;;;;;;;14.16;82.82;98292.63;7355024;19;20021;-59
2021/12/29 08:42:38;;;;;;;0.00;0.00;;;;;;;14.18;82.21;98308.25;7353480;19;20098;-59
2021/12/29 08:45:06;;;;;;;0.10;0.10;;;;;;;14.19;82.40;98302.91;7362257;19;20106;-59
2021/12/29 08:47:32;;;;;;;0.00;0.00;;;;;;;14.16;82.31;98297.03;7360743;19;20069;-59
2021/12/29 08:49:57;;;;;;;0.00;0.00;;;;;;;14.12;81.89;98317.41;7361914;19;20027;-59
2021/12/29 08:52:23;;;;;;;0.00;0.00;;;;;;;14.05;81.37;98303.09;7359833;19;20022;-58
2021/12/29 08:54:48;;;;;;;0.10;0.10;;;;;;;14.17;81.93;98353.81;7361751;19;20010;-59
2021/12/29 08:57:14;;;;;;;0.10;0.10;;;;;;;14.21;81.84;98356.09;7360555;19;20018;-58
2021/12/29 08:59:39;;;;;;;0.03;0.03;;;;;;;14.21;81.15;98340.34;7354720;19;20022;-60
2021/12/29 09:02:05;;;;;;;0.00;0.00;;;;;;;14.19;81.02;98333.53;7360875;19;20022;-59
2021/12/29 09:04:30;;;;;;;0.00;0.00;;;;;;;14.18;81.16;98351.06;7364622;19;20010;-59
2021/12/29 09:06:56;;;;;;;0.03;0.03;;;;;;;14.19;81.37;98371.16;7355063;19;21212;-59
2021/12/29 09:09:21;;;;;;;0.10;0.10;;;;;;;14.15;80.28;98371.47;7364998;19;20033;-58
2021/12/29 09:11:47;;;;;;;0.10;0.10;;;;;;;14.19;80.13;98368.53;7358859;19;20070;-59
2021/12/29 09:14:12;;;;;;;0.10;0.10;;;;;;;14.20;79.78;98412.19;7362369;19;20019;-58
2021/12/29 09:16:38;;;;;;;0.03;0.03;;;;;;;14.15;78.91;98409.06;7362710;19;20034;-59
2021/12/29 09:19:04;;;;;;;0.10;0.10;;;;;;;14.18;78.72;98456.06;7353334;19;20140;-59
2021/12/29 09:21:31;;;;;;;0.10;0.10;;;;;;;14.17;78.30;98457.03;7356651;19;20013;-58
2021/12/29 09:23:57;;;;;;;0.10;0.10;;;;;;;14.16;78.16;98465.00;7337625;19;20017;-59
2021/12/29 09:26:23;;;;;;;0.10;0.10;;;;;;;14.13;77.64;98458.19;7363173;19;20536;-59
2021/12/29 09:28:49;;;;;;;0.00;0.00;;;;;;;14.08;77.70;98449.81;7358742;19;20014;-59
2021/12/29 09:31:16;;;;;;;0.00;0.00;;;;;;;14.13;77.35;98471.31;7365268;19;20031;-58
2021/12/29 09:33:43;;;;;;;0.00;0.00;;;;;;;14.11;77.12;98523.09;7364073;19;20010;-59
2021/12/29 09:36:09;;;;;;;0.00;0.00;;;;;;;14.09;76.35;98484.75;7364209;19;20470;-57
2021/12/29 09:38:40;;;;;;;0.10;0.10;;;;;;;14.06;77.37;98546.19;7368078;19;20010;-58
2021/12/29 09:41:08;;;;;;;0.05;0.05;;;;;;;14.01;76.41;98522.06;7368345;19;20012;-59
2021/12/29 09:43:35;;;;;;;0.00;0.00;;;;;;;13.97;76.07;98537.19;7347314;19;20019;-59
2021/12/29 09:46:01;;;;;;;0.10;0.10;;;;;;;13.94;76.07;98568.06;7321366;19;20006;-59
2021/12/29 09:48:27;;;;;;;0.10;0.10;;;;;;;13.91;76.29;98542.03;7332643;19;20047;-59
2021/12/29 09:50:53;;;;;;;0.00;0.00;;;;;;;13.87;76.21;98619.28;7341456;19;20471;-58
2021/12/29 13:19:47;;;;;;;0.10;0.10;;;;;;;14.93;69.28;99062.84;7383454;19;20052;31
2021/12/29 13:22:22;;;;;;;0.10;0.10;;;;;;;15.00;69.66;99069.41;7355555;19;20031;-58
2021/12/29 13:24:48;;;;;;;0.10;0.10;;;;;;;15.02;69.62;99078.00;7356156;19;20027;-57
2021/12/29 13:27:16;;;;;;;0.10;0.10;;;;;;;15.10;68.88;99119.53;7364192;19;20007;-57
2021/12/29 13:29:42;;;;;;;0.00;0.00;;;;;;;15.12;68.60;99130.81;7360544;19;20015;-57
2021/12/29 13:32:10;;;;;;;0.10;0.10;;;;;;;15.18;68.70;99140.09;7358932;19;20913;-58
2021/12/29 13:34:36;;;;;;;0.00;0.00;;;;;;;15.17;67.76;99136.63;7361285;19;20029;-57
2021/12/29 13:37:10;;;;;;;0.10;0.10;;;;;;;15.20;69.05;99159.22;7360263;19;20874;-57
2021/12/29 13:39:35;;;;;;;0.03;0.03;;;;;;;15.15;68.42;99164.78;7360694;19;20018;-57
2021/12/29 13:42:01;;;;;;;0.10;0.10;;;;;;;15.11;67.20;99165.09;7360696;19;20007;-58
2021/12/29 13:44:28;;;;;;;0.10;0.10;;;;;;;15.06;67.76;99162.78;7356250;19;20014;-58
2021/12/29 13:46:53;;;;;;;0.10;0.10;;;;;;;15.00;68.29;99168.41;7362689;19;20061;-57
2021/12/29 13:49:21;;;;;;;0.05;0.05;;;;;;;14.99;67.87;99172.00;7356527;19;20359;-57
2021/12/29 13:51:47;;;;;;;0.10;0.10;;;;;;;14.93;67.86;99161.88;7359575;19;20021;-57
2021/12/29 13:54:16;;;;;;;0.10;0.10;;;;;;;14.94;68.33;99168.81;7356152;19;20571;-57
2021/12/29 13:56:46;;;;;;;0.05;0.05;;;;;;;14.94;68.02;99160.94;7362998;19;20009;-58
2021/12/29 13:59:17;;;;;;;0.10;0.10;;;;;;;14.94;68.50;99160.94;7359530;19;20021;-57
2021/12/29 14:01:47;;;;;;;0.10;0.10;;;;;;;14.93;68.58;99164.50;7335740;19;20023;-57
2021/12/29 14:04:16;;;;;;;0.00;0.00;;;;;;;14.79;68.00;99132.06;7361475;19;20049;-57
2021/12/29 14:06:42;;;;;;;0.10;0.10;;;;;;;14.89;67.32;99142.00;7360918;19;20014;-57
2021/12/29 14:09:10;;;;;;;0.08;0.08;;;;;;;14.90;68.00;99148.94;7364764;19;20006;-57
2021/12/29 14:11:35;;;;;;;;;;;;;;;14.90;69.84;99146.31;7364504;19;20010;-58
2021/12/29 14:14:06;;;;;;;0.05;0.05;;;;;;;14.86;68.00;99152.72;7365921;19;19927;-58
2021/12/29 14:16:33;;;;;;;0.05;0.05;;;;;;;14.84;68.63;99157.22;7362625;19;20014;-58
2021/12/29 14:19:03;;;;;;;0.10;0.10;;;;;;;14.81;67.60;99152.19;7364741;19;20010;-57
2021/12/29 14:21:32;;;;;;;0.10;0.10;;;;;;;14.79;68.15;99173.28;7359689;19;20492;-58
2021/12/29 14:24:02;;;;;;;0.10;0.10;;;;;;;14.79;68.55;99158.34;7366241;19;20006;-57
2021/12/29 14:26:36;;;;;;;0.05;0.05;;;;;;;14.81;68.31;99154.81;7363765;19;20019;-57
2021/12/29 14:29:03;;;;;;;0.00;0.00;;;;;;;14.83;68.79;99171.31;7367712;19;20010;-57
2021/12/29 14:31:38;;;;;;;0.10;0.10;;;;;;;14.90;69.81;99173.47;7360540;19;20037;-57
2021/12/29 14:34:05;;;;;;;0.10;0.10;;;;;;;14.94;68.47;99168.81;7363205;19;20045;-58
2021/12/29 14:36:45;;;;;;;0.10;0.10;;;;;;;15.08;69.70;99176.66;7368851;19;20025;-56
2021/12/29 14:39:21;;;;;;;0.10;0.10;;;;;;;15.11;68.68;99181.72;7361420;19;20351;-57
2021/12/29 14:42:04;;;;;;;0.10;0.10;;;;;;;15.15;68.81;99187.59;7368564;19;20017;-58
2021/12/29 14:44:30;;;;;;;0.00;0.00;;;;;;;15.11;67.24;99201.91;7365642;19;20014;-58
2021/12/29 14:46:58;;;;;;;0.00;0.00;;;;;;;15.09;65.94;99199.38;7365685;19;20119;-57
2021/12/29 14:49:38;;;;;;;0.10;0.10;;;;;;;15.08;67.45;99192.44;7366707;19;20590;-57
2021/12/29 14:52:06;;;;;;;0.00;0.00;;;;;;;14.99;66.42;99185.13;7368595;19;20105;-58
2021/12/29 14:54:38;;;;;;;0.08;0.08;;;;;;;14.96;67.30;99187.97;7358958;19;20022;-58
2021/12/29 14:57:10;;;;;;;0.00;0.00;;;;;;;14.89;67.37;99186.69;7366162;19;20074;-55
2021/12/29 14:59:36;;;;;;;0.00;0.00;;;;;;;14.73;66.46;99184.19;7360585;19;20687;-58
2021/12/29 15:02:23;;;;;;;0.03;0.03;;;;;;;14.74;67.29;99199.00;7362112;19;20093;-55
2021/12/29 15:05:01;;;;;;;0.10;0.10;;;;;;;14.70;68.32;99214.16;7361447;19;20010;-58
2021/12/29 15:07:27;;;;;;;0.10;0.10;;;;;;;14.59;67.42;99200.81;7363163;19;20088;-58
2021/12/29 15:10:33;;;;;;;0.10;0.10;;;;;;;14.54;69.42;99206.38;7364023;19;20045;-57